Time;durP1;ratioP1;P1;durP2;ratioP2;P2;SDS_P1;SDS_P2;PMS_P1;PMS_P2;Temp;Humidity;BMP_temperature;BMP_pressure;BME280_temperature;BME280_humidity;BME280_pressure;Samples;Min_cycle;Max_cycle;Signal;HPM_P1;HPM_P2
2021/11/05 00:00:54;;;;;;;6.50;4.72;;;5.30;70.30;;;;;;4988319;28;20038;-79
2021/11/05 00:03:20;;;;;;;7.32;4.78;;;5.20;70.20;;;;;;4988199;28;20092;-78
2021/11/05 00:05:48;;;;;;;11.13;6.20;;;5.20;70.20;;;;;;4987692;28;20041;-78
2021/11/05 00:08:15;;;;;;;14.93;7.38;;;5.20;70.20;;;;;;4987014;28;20433;-78
2021/11/05 00:10:43;;;;;;;17.48;9.60;;;5.20;70.30;;;;;;4986500;28;20042;-77
2021/11/05 00:13:11;;;;;;;16.90;8.73;;;5.20;70.30;;;;;;4987877;28;20113;-76
2021/11/05 00:15:38;;;;;;;18.85;9.77;;;5.10;70.10;;;;;;4987793;28;20045;-77
2021/11/05 00:18:04;;;;;;;19.52;11.40;;;5.20;70.30;;;;;;4989186;28;20496;-78
2021/11/05 00:20:30;;;;;;;23.90;11.13;;;5.10;70.10;;;;;;5007591;28;20429;-76
2021/11/05 00:22:57;;;;;;;19.70;9.32;;;5.10;70.10;;;;;;5018436;28;20033;-76
2021/11/05 00:25:23;;;;;;;21.88;11.93;;;5.10;70.10;;;;;;4986306;28;20038;-77
2021/11/05 00:27:50;;;;;;;19.15;9.88;;;5.10;70.10;;;;;;4987911;28;20041;-78
2021/11/05 00:30:17;;;;;;;19.75;10.65;;;5.00;69.90;;;;;;4987532;28;20026;-77
2021/11/05 00:32:44;;;;;;;22.25;10.45;;;5.10;70.10;;;;;;4986105;28;20070;-78
2021/11/05 00:35:11;;;;;;;22.10;11.00;;;5.00;69.90;;;;;;4986774;28;20038;-78
2021/11/05 00:37:37;;;;;;;19.50;9.55;;;5.00;70.00;;;;;;4988011;28;20085;-77
2021/11/05 00:40:05;;;;;;;18.77;8.85;;;5.00;70.00;;;;;;4986323;28;20032;-77
2021/11/05 00:42:31;;;;;;;16.15;9.70;;;5.00;70.00;;;;;;4987784;28;20451;-79
2021/11/05 00:44:57;;;;;;;16.42;8.60;;;4.90;69.80;;;;;;4987117;28;20038;-78
2021/11/05 00:47:24;;;;;;;20.58;9.25;;;4.90;69.80;;;;;;4986216;28;20022;-79
2021/11/05 00:49:49;;;;;;;16.90;7.90;;;4.90;69.80;;;;;;5002797;28;20498;-78
2021/11/05 00:52:15;;;;;;;12.02;8.00;;;4.90;69.80;;;;;;5021670;28;20040;-79
2021/11/05 00:54:42;;;;;;;17.30;8.32;;;4.90;69.80;;;;;;4988496;28;20101;-78
2021/11/05 00:57:08;;;;;;;12.10;7.65;;;4.90;69.90;;;;;;4987772;28;20065;-77
2021/11/05 00:59:34;;;;;;;14.13;8.90;;;4.80;69.60;;;;;;4987069;28;20080;-79
2021/11/05 01:02:00;;;;;;;12.70;7.13;;;4.80;69.60;;;;;;4987151;28;20030;-79
2021/11/05 01:04:26;;;;;;;13.02;6.75;;;4.80;69.70;;;;;;4984595;28;20048;-80
2021/11/05 01:06:52;;;;;;;13.93;6.38;;;4.80;69.70;;;;;;4986703;28;20115;-79
2021/11/05 01:09:18;;;;;;;13.13;7.07;;;4.80;69.70;;;;;;5001427;28;20239;-77
2021/11/05 01:11:44;;;;;;;11.80;7.18;;;4.80;69.70;;;;;;4987132;28;20042;-79
2021/11/05 01:14:10;;;;;;;13.93;7.28;;;4.80;69.70;;;;;;4985320;28;20085;-77
2021/11/05 01:16:36;;;;;;;13.48;7.57;;;4.70;69.60;;;;;;4986852;28;20072;-77
2021/11/05 01:19:03;;;;;;;12.80;7.47;;;4.80;69.80;;;;;;4986492;28;20034;-77
2021/11/05 01:21:28;;;;;;;12.50;6.25;;;4.80;69.80;;;;;;4987164;28;20030;-77
2021/11/05 01:23:55;;;;;;;12.85;6.85;;;4.70;69.60;;;;;;4986077;28;20379;-78
2021/11/05 01:26:21;;;;;;;13.60;6.93;;;4.70;69.60;;;;;;4986688;28;20038;-78
2021/11/05 01:28:47;;;;;;;14.10;6.03;;;4.70;69.60;;;;;;4994143;28;20116;-78
2021/11/05 01:31:13;;;;;;;10.40;5.90;;;4.70;69.60;;;;;;5006971;28;20034;-78
2021/11/05 01:33:39;;;;;;;10.40;5.93;;;4.70;69.60;;;;;;4997572;28;20042;-79
2021/11/05 01:36:05;;;;;;;11.23;5.68;;;4.60;69.40;;;;;;4985344;28;20030;-78
2021/11/05 01:38:31;;;;;;;9.20;5.55;;;4.60;69.40;;;;;;4987272;28;20508;-77
2021/11/05 01:40:57;;;;;;;9.98;6.07;;;4.60;69.40;;;;;;4986966;28;20026;-78
2021/11/05 01:43:24;;;;;;;11.30;5.72;;;4.60;69.40;;;;;;4987027;28;20035;-77
2021/11/05 01:45:51;;;;;;;10.18;6.30;;;4.60;69.40;;;;;;4986873;28;20034;-77
2021/11/05 01:48:18;;;;;;;9.77;6.05;;;4.50;69.30;;;;;;4985961;28;20038;-78
2021/11/05 01:50:45;;;;;;;8.27;5.05;;;4.60;69.50;;;;;;4986874;28;20030;-79
2021/11/05 01:53:11;;;;;;;6.95;5.43;;;4.60;69.50;;;;;;4996048;28;20133;-78
2021/11/05 01:55:38;;;;;;;7.05;5.07;;;4.50;69.40;;;;;;4987351;28;20018;-78
2021/11/05 01:58:04;;;;;;;7.60;4.47;;;4.60;69.60;;;;;;4987204;28;20061;-79
2021/11/05 02:00:32;;;;;;;9.23;5.63;;;4.60;69.70;;;;;;4985686;28;20383;-80
2021/11/05 02:02:59;;;;;;;9.35;5.50;;;4.60;69.70;;;;;;4987077;28;20035;-79
2021/11/05 02:05:25;;;;;;;10.38;5.22;;;4.60;69.70;;;;;;4984724;28;20105;-80
2021/11/05 02:07:52;;;;;;;8.73;4.97;;;4.60;69.70;;;;;;4985556;28;20372;-79
2021/11/05 02:10:23;;;;;;;7.50;5.05;;;4.60;69.60;;;;;;4987137;28;20057;-79
2021/11/05 02:12:50;;;;;;;9.77;5.03;;;4.60;69.60;;;;;;4987648;28;20034;-79
2021/11/05 02:15:17;;;;;;;9.73;4.95;;;4.60;69.60;;;;;;5005203;28;20388;-79
2021/11/05 02:17:46;;;;;;;6.82;5.03;;;4.50;69.40;;;;;;4990194;28;20129;-79
2021/11/05 02:20:14;;;;;;;6.70;4.78;;;4.50;69.40;;;;;;4986117;28;20401;-78
2021/11/05 02:22:41;;;;;;;8.40;4.50;;;4.50;69.40;;;;;;4986048;28;20027;-79
2021/11/05 02:25:09;;;;;;;7.45;5.50;;;4.50;69.40;;;;;;4985430;28;20034;-78
2021/11/05 02:27:35;;;;;;;7.38;4.93;;;4.50;69.40;;;;;;4986016;28;20541;-79
2021/11/05 02:30:04;;;;;;;9.60;4.63;;;4.50;69.40;;;;;;4986649;28;20026;-79
2021/11/05 02:32:30;;;;;;;8.10;5.15;;;4.50;69.40;;;;;;4999065;28;20069;-79
2021/11/05 02:34:56;;;;;;;9.75;4.93;;;4.40;69.20;;;;;;4987272;28;20038;-78
2021/11/05 02:37:26;;;;;;;9.00;5.43;;;4.40;69.20;;;;;;4987823;28;20486;-77
2021/11/05 02:39:53;;;;;;;10.30;5.63;;;4.40;69.20;;;;;;4983716;28;20233;-78
2021/11/05 02:42:20;;;;;;;14.38;6.25;;;4.40;69.20;;;;;;5001962;28;20034;-78
2021/11/05 02:44:47;;;;;;;11.32;6.25;;;4.40;69.20;;;;;;4988724;28;20038;-79
2021/11/05 02:47:21;;;;;;;12.02;6.57;;;4.40;69.20;;;;;;4993201;28;20026;-80
2021/11/05 02:49:47;;;;;;;9.93;6.53;;;4.30;69.00;;;;;;5009205;28;20540;-78
2021/11/05 02:52:15;;;;;;;12.43;6.50;;;4.30;69.00;;;;;;4994720;28;20026;-79
2021/11/05 02:54:41;;;;;;;11.05;6.75;;;4.30;69.10;;;;;;4993981;28;20035;-79
2021/11/05 02:57:08;;;;;;;12.05;7.20;;;4.30;69.10;;;;;;4993103;28;20030;-79
2021/11/05 02:59:35;;;;;;;8.80;5.55;;;4.30;69.10;;;;;;4993939;28;20057;-79
2021/11/05 03:02:02;;;;;;;12.38;6.15;;;4.30;69.10;;;;;;4994049;28;20033;-80
2021/11/05 03:04:28;;;;;;;10.63;6.15;;;4.30;69.20;;;;;;4994035;28;20030;-79
2021/11/05 03:07:00;;;;;;;8.70;5.80;;;4.30;69.20;;;;;;4993885;28;20035;-79
2021/11/05 03:09:32;;;;;;;9.20;5.40;;;4.30;69.20;;;;;;4994357;28;20022;-77
2021/11/05 03:11:59;;;;;;;8.10;5.22;;;4.30;69.30;;;;;;4993561;28;20342;-78
2021/11/05 03:14:26;;;;;;;8.77;5.22;;;4.30;69.30;;;;;;4994080;28;20552;-77
2021/11/05 03:16:53;;;;;;;11.55;5.45;;;4.30;69.30;;;;;;4993968;28;20148;-79
2021/11/05 03:19:19;;;;;;;7.72;5.03;;;4.30;69.40;;;;;;4993430;28;20034;-79
2021/11/05 03:21:45;;;;;;;10.00;4.93;;;4.30;69.40;;;;;;4993944;28;20026;-79
2021/11/05 03:24:14;;;;;;;11.82;5.03;;;4.30;69.40;;;;;;4976420;28;20032;-79
2021/11/05 03:26:40;;;;;;;9.10;5.00;;;4.30;69.40;;;;;;4993815;28;20117;-78
2021/11/05 03:29:06;;;;;;;10.93;4.43;;;4.40;69.60;;;;;;4993672;28;20030;-78
2021/11/05 03:31:33;;;;;;;7.18;4.70;;;4.40;69.60;;;;;;5008703;28;20088;-79
2021/11/05 03:34:00;;;;;;;7.55;4.18;;;4.30;69.40;;;;;;4993143;28;20046;-78
2021/11/05 03:36:26;;;;;;;7.68;4.82;;;4.30;69.30;;;;;;4993882;28;20355;-79
2021/11/05 03:38:53;;;;;;;7.05;4.43;;;4.30;69.30;;;;;;4993694;28;20041;-79
2021/11/05 03:41:19;;;;;;;8.95;4.95;;;4.30;69.30;;;;;;4991583;28;20030;-78
2021/11/05 03:43:45;;;;;;;7.45;4.38;;;4.30;69.30;;;;;;4993484;28;20057;-78
2021/11/05 03:46:12;;;;;;;6.97;4.43;;;4.30;69.30;;;;;;4993419;28;20065;-78
2021/11/05 03:48:39;;;;;;;9.00;4.70;;;4.30;69.30;;;;;;4992779;28;20058;-79
2021/11/05 03:51:06;;;;;;;6.47;4.40;;;4.30;69.30;;;;;;4993315;28;20129;-79
2021/11/05 03:53:33;;;;;;;9.50;4.40;;;4.20;69.10;;;;;;4992659;28;20049;-78
2021/11/05 03:55:59;;;;;;;6.07;3.67;;;4.30;69.30;;;;;;4993315;28;20026;-79
2021/11/05 03:58:25;;;;;;;7.07;4.13;;;4.20;69.10;;;;;;4993245;28;20045;-78
2021/11/05 04:00:52;;;;;;;8.38;4.03;;;4.20;69.10;;;;;;4993490;28;20026;-79
2021/11/05 04:03:20;;;;;;;7.22;3.35;;;4.20;69.10;;;;;;4992996;28;20026;-77
2021/11/05 04:05:46;;;;;;;7.25;4.03;;;4.20;69.10;;;;;;4992863;28;20027;-79
2021/11/05 04:08:12;;;;;;;8.57;3.83;;;4.20;69.20;;;;;;4991580;28;20026;-78
2021/11/05 04:10:38;;;;;;;5.53;3.95;;;4.10;69.00;;;;;;4993245;28;20469;-77
2021/11/05 04:13:05;;;;;;;5.20;3.83;;;4.10;69.10;;;;;;4993050;28;20057;-79
2021/11/05 04:15:31;;;;;;;5.60;3.40;;;4.10;69.10;;;;;;4992754;28;20033;-79
2021/11/05 04:17:57;;;;;;;6.32;3.90;;;4.10;69.10;;;;;;4992653;28;20038;-78
2021/11/05 04:20:24;;;;;;;5.45;3.80;;;4.10;69.10;;;;;;4991765;28;20036;-80
2021/11/05 04:22:50;;;;;;;5.18;3.28;;;4.10;69.20;;;;;;4992413;28;20080;-79
2021/11/05 04:25:15;;;;;;;6.03;3.17;;;4.20;69.40;;;;;;5007853;28;20030;-77
2021/11/05 04:27:42;;;;;;;6.50;4.07;;;4.20;69.40;;;;;;4992216;28;20901;-79
2021/11/05 04:30:13;;;;;;;6.15;3.22;;;4.20;69.50;;;;;;4992411;28;20026;-77
2021/11/05 04:32:40;;;;;;;4.78;3.17;;;4.20;69.50;;;;;;5007485;28;20454;-79
2021/11/05 04:35:06;;;;;;;6.80;4.15;;;4.20;69.50;;;;;;4992529;28;20026;-78
2021/11/05 04:37:32;;;;;;;6.53;3.38;;;4.20;69.50;;;;;;4992529;28;20034;-79
2021/11/05 04:39:58;;;;;;;5.38;3.83;;;4.20;69.60;;;;;;4992168;28;20154;-76
2021/11/05 04:42:24;;;;;;;4.53;3.28;;;4.30;69.80;;;;;;4992294;28;20502;-77
2021/11/05 04:44:50;;;;;;;4.25;3.10;;;4.30;69.80;;;;;;4990967;28;20042;-75
2021/11/05 04:47:16;;;;;;;5.85;3.25;;;4.30;69.80;;;;;;4992044;28;20084;-79
2021/11/05 04:49:42;;;;;;;5.75;3.83;;;4.30;70.00;;;;;;4990446;28;20077;-80
2021/11/05 04:52:08;;;;;;;4.03;3.30;;;4.30;69.80;;;;;;4991307;28;20030;-78
2021/11/05 04:54:35;;;;;;;4.50;3.38;;;4.40;70.10;;;;;;4991023;28;20112;-80
2021/11/05 04:57:01;;;;;;;6.28;3.65;;;4.40;70.10;;;;;;4991711;28;20430;-80
2021/11/05 04:59:27;;;;;;;3.75;3.10;;;4.40;70.60;;;;;;4992054;28;20030;-79
2021/11/05 05:01:53;;;;;;;5.03;3.72;;;4.40;70.10;;;;;;4991921;28;20022;-79
2021/11/05 05:04:19;;;;;;;5.30;3.28;;;4.40;70.10;;;;;;4991726;28;20034;-79
2021/11/05 05:06:45;;;;;;;5.32;3.40;;;4.50;70.30;;;;;;4991541;28;20041;-79
2021/11/05 05:09:11;;;;;;;4.60;3.03;;;4.50;70.40;;;;;;4991955;28;20042;-79
2021/11/05 05:11:37;;;;;;;3.85;2.90;;;4.50;70.40;;;;;;4991962;28;20109;-79
2021/11/05 05:14:03;;;;;;;4.55;3.03;;;4.50;70.40;;;;;;5006771;28;20062;-79
2021/11/05 05:16:29;;;;;;;5.82;2.92;;;4.60;70.60;;;;;;5006495;28;20030;-79
2021/11/05 05:18:55;;;;;;;5.13;3.47;;;4.50;70.40;;;;;;4991632;28;20096;-79
2021/11/05 05:21:21;;;;;;;4.95;3.10;;;4.50;70.40;;;;;;4991743;28;20077;-79
2021/11/05 05:23:48;;;;;;;3.17;2.72;;;4.60;70.60;;;;;;4991004;28;20467;-76
2021/11/05 05:26:13;;;;;;;4.18;3.20;;;4.60;70.60;;;;;;4991529;28;20485;-77
2021/11/05 05:28:39;;;;;;;5.38;3.08;;;4.60;70.60;;;;;;5006913;28;20092;-76
2021/11/05 05:31:07;;;;;;;3.53;3.22;;;4.60;70.60;;;;;;4991363;28;20029;-79
2021/11/05 05:33:37;;;;;;;5.88;2.72;;;4.60;70.60;;;;;;4991639;28;20053;-79
2021/11/05 05:36:05;;;;;;;3.25;2.80;;;4.70;70.80;;;;;;4990358;28;20026;-79
2021/11/05 05:38:31;;;;;;;5.88;3.35;;;4.60;70.70;;;;;;4991721;28;20105;-78
2021/11/05 05:40:57;;;;;;;3.42;2.75;;;4.60;70.70;;;;;;4991482;28;20485;-78
2021/11/05 05:43:23;;;;;;;4.63;2.95;;;4.70;70.90;;;;;;4991179;28;20035;-78
2021/11/05 05:45:49;;;;;;;4.00;2.80;;;4.70;70.90;;;;;;4990699;28;20786;-80
2021/11/05 05:48:15;;;;;;;3.60;2.92;;;4.70;70.90;;;;;;4984611;28;20046;-80
2021/11/05 05:50:41;;;;;;;4.68;3.22;;;4.70;70.90;;;;;;4987092;28;20026;-80
2021/11/05 05:53:07;;;;;;;3.33;2.35;;;4.70;71.00;;;;;;4986922;28;20046;-79
2021/11/05 05:55:34;;;;;;;3.88;3.30;;;4.70;71.00;;;;;;4994944;28;20397;-80
2021/11/05 05:58:01;;;;;;;3.47;2.67;;;4.80;71.20;;;;;;4987354;28;20065;-80
2021/11/05 06:00:29;;;;;;;5.18;2.97;;;4.80;71.20;;;;;;4987635;28;20089;-78
2021/11/05 06:02:56;;;;;;;6.05;3.33;;;4.80;71.20;;;;;;4986132;28;20053;-79
2021/11/05 06:05:21;;;;;;;3.60;3.03;;;4.80;71.20;;;;;;4985556;28;20031;-78
2021/11/05 06:07:47;;;;;;;2.88;2.58;;;4.80;71.30;;;;;;4986478;28;20149;-78
2021/11/05 06:10:13;;;;;;;4.15;2.72;;;4.80;71.20;;;;;;4986946;28;20493;-78
2021/11/05 06:12:39;;;;;;;4.85;2.83;;;4.80;71.30;;;;;;4987633;28;20049;-79
2021/11/05 06:15:06;;;;;;;5.30;3.30;;;4.90;71.40;;;;;;4985167;28;20034;-79
2021/11/05 06:17:33;;;;;;;3.92;2.83;;;4.90;71.50;;;;;;4986635;28;20121;-80
2021/11/05 06:19:59;;;;;;;3.83;3.10;;;4.90;71.50;;;;;;4988476;28;20374;-77
2021/11/05 06:22:25;;;;;;;4.40;2.58;;;4.90;71.50;;;;;;4988287;28;20030;-79
2021/11/05 06:24:51;;;;;;;4.28;2.90;;;4.90;71.50;;;;;;5003324;28;20037;-78
2021/11/05 06:27:17;;;;;;;4.78;3.25;;;5.00;71.70;;;;;;4988734;28;20487;-81
2021/11/05 06:29:43;;;;;;;4.13;3.10;;;5.00;71.60;;;;;;4989546;28;20522;-80
2021/11/05 06:32:09;;;;;;;5.32;3.05;;;5.00;71.60;;;;;;4988601;28;20034;-82
2021/11/05 06:34:35;;;;;;;3.88;3.20;;;5.00;71.70;;;;;;4989598;28;20069;-81
2021/11/05 06:37:02;;;;;;;3.17;2.55;;;5.00;71.70;;;;;;4988645;28;20457;-80
2021/11/05 06:39:28;;;;;;;6.38;4.68;;;5.00;71.70;;;;;;5005867;28;20474;-80
2021/11/05 06:41:55;;;;;;;5.05;3.58;;;5.00;71.70;;;;;;5010754;28;20465;-90
2021/11/05 06:44:21;;;;;;;7.68;4.63;;;5.00;71.80;;;;;;5008732;28;20041;-84
2021/11/05 06:46:47;;;;;;;5.38;3.15;;;5.00;71.80;;;;;;5000400;28;20034;-83
2021/11/05 06:49:13;;;;;;;6.00;3.83;;;5.10;72.10;;;;;;5000334;28;20092;-85
2021/11/05 06:51:39;;;;;;;6.03;3.85;;;5.10;72.10;;;;;;4991143;28;20121;-79
2021/11/05 06:54:05;;;;;;;4.57;3.55;;;5.10;72.10;;;;;;5005856;28;20140;-83
2021/11/05 06:56:31;;;;;;;3.85;3.05;;;5.10;72.10;;;;;;5009074;28;20042;-82
2021/11/05 06:58:58;;;;;;;4.68;3.75;;;5.20;72.30;;;;;;4995727;28;20030;-81
2021/11/05 07:01:25;;;;;;;4.25;3.53;;;5.10;72.10;;;;;;4989246;28;20331;-85
2021/11/05 07:03:51;;;;;;;5.88;3.55;;;5.20;72.30;;;;;;4990344;28;20126;-85
2021/11/05 07:06:17;;;;;;;6.15;3.50;;;5.20;72.30;;;;;;4993732;28;20400;-82
2021/11/05 07:08:43;;;;;;;4.72;3.72;;;5.20;72.30;;;;;;4997602;28;20608;-80
2021/11/05 07:11:09;;;;;;;5.45;3.40;;;5.20;72.30;;;;;;4979436;28;20118;-83
2021/11/05 07:13:35;;;;;;;5.07;4.13;;;5.20;72.30;;;;;;4983795;28;20132;-89
2021/11/05 07:16:03;;;;;;;4.15;3.25;;;5.20;72.30;;;;;;4989494;28;20061;-85
2021/11/05 07:18:31;;;;;;;4.43;3.60;;;5.20;72.30;;;;;;4988465;28;20030;-81
2021/11/05 07:20:59;;;;;;;4.63;3.45;;;5.20;72.30;;;;;;4989139;28;20053;-78
2021/11/05 07:23:25;;;;;;;4.38;3.35;;;5.20;72.20;;;;;;4988102;28;20044;-79
2021/11/05 07:25:51;;;;;;;5.38;3.20;;;5.20;72.20;;;;;;4988606;28;20030;-78
2021/11/05 07:28:18;;;;;;;5.20;3.75;;;5.20;72.20;;;;;;4988313;28;20113;-87
2021/11/05 07:30:44;;;;;;;4.15;3.28;;;5.20;72.20;;;;;;4986701;28;20035;-80
2021/11/05 07:33:10;;;;;;;3.90;3.38;;;5.10;72.10;;;;;;4983517;28;20030;-82
2021/11/05 07:35:36;;;;;;;3.67;3.10;;;5.20;72.20;;;;;;5003021;28;20057;-80
2021/11/05 07:38:02;;;;;;;4.72;3.53;;;5.20;72.20;;;;;;4986707;28;20481;-82
2021/11/05 07:40:29;;;;;;;4.70;3.08;;;5.20;72.20;;;;;;4987320;28;20388;-82
2021/11/05 07:42:55;;;;;;;4.82;3.28;;;5.20;72.20;;;;;;4988014;28;20093;-82
2021/11/05 07:45:21;;;;;;;4.47;3.80;;;5.20;72.20;;;;;;4987951;28;20038;-81
2021/11/05 07:47:47;;;;;;;6.15;3.15;;;5.20;72.30;;;;;;4992378;28;20053;-82
2021/11/05 07:50:17;;;;;;;5.32;4.40;;;5.20;72.20;;;;;;5004525;28;20544;-81
2021/11/05 07:52:44;;;;;;;4.75;3.63;;;5.20;72.30;;;;;;4998589;28;20031;-78
2021/11/05 07:55:10;;;;;;;4.82;3.95;;;5.20;72.30;;;;;;4985980;28;20118;-82
2021/11/05 07:57:36;;;;;;;3.85;3.50;;;5.30;72.50;;;;;;4987949;28;20162;-82
2021/11/05 08:00:06;;;;;;;6.45;3.88;;;5.30;72.50;;;;;;5005264;28;20572;-81
2021/11/05 08:02:33;;;;;;;5.07;4.07;;;5.30;72.50;;;;;;5020460;28;20030;-82
2021/11/05 08:04:59;;;;;;;4.50;3.70;;;5.40;72.60;;;;;;5005122;28;20041;-82
2021/11/05 08:07:25;;;;;;;4.85;3.95;;;5.40;72.60;;;;;;5006439;28;20037;-81
2021/11/05 08:09:51;;;;;;;6.40;4.63;;;5.50;72.80;;;;;;5006814;28;20393;-81
2021/11/05 08:12:18;;;;;;;3.70;3.28;;;5.50;72.70;;;;;;5022800;28;20037;-82
2021/11/05 08:14:45;;;;;;;6.13;3.63;;;5.60;72.90;;;;;;5006334;28;20065;-78
2021/11/05 08:17:11;;;;;;;4.88;4.10;;;5.60;72.90;;;;;;4996481;28;20038;-82
2021/11/05 08:19:37;;;;;;;5.57;4.25;;;5.70;73.00;;;;;;4985621;28;20034;-79
2021/11/05 08:22:03;;;;;;;4.82;4.22;;;5.70;73.00;;;;;;4987975;28;20438;-80
2021/11/05 08:24:29;;;;;;;4.88;4.13;;;5.80;73.10;;;;;;4988032;28;20030;-82
2021/11/05 08:26:56;;;;;;;5.75;3.63;;;5.80;73.10;;;;;;4988124;28;20037;-84
2021/11/05 08:29:22;;;;;;;4.78;3.75;;;5.90;73.30;;;;;;4986845;28;20430;-83
2021/11/05 08:31:49;;;;;;;4.22;3.83;;;6.00;73.50;;;;;;4988190;28;20035;-84
2021/11/05 08:34:16;;;;;;;5.88;3.95;;;6.00;73.40;;;;;;4987449;28;20623;-81
2021/11/05 08:36:42;;;;;;;4.15;3.72;;;6.10;73.60;;;;;;4986746;28;20128;-81
2021/11/05 08:39:08;;;;;;;4.60;3.58;;;6.10;73.60;;;;;;4988056;28;20042;-81
2021/11/05 08:41:35;;;;;;;5.40;4.10;;;6.10;73.60;;;;;;4987693;28;20402;-81
2021/11/05 08:44:02;;;;;;;4.20;3.75;;;6.20;73.70;;;;;;4987975;28;20045;-82
2021/11/05 08:46:30;;;;;;;5.15;3.92;;;6.20;73.80;;;;;;5002617;28;20113;-82
2021/11/05 08:48:59;;;;;;;5.03;3.95;;;6.30;73.90;;;;;;4986239;28;20038;-81
2021/11/05 08:51:25;;;;;;;4.28;3.88;;;6.40;74.10;;;;;;4987958;28;20042;-81
2021/11/05 08:53:51;;;;;;;4.40;4.00;;;6.50;74.20;;;;;;5002610;28;20406;-81
2021/11/05 08:56:19;;;;;;;4.57;3.80;;;6.50;74.20;;;;;;4988110;28;20436;-85
2021/11/05 08:58:46;;;;;;;4.60;3.70;;;6.60;74.30;;;;;;4998800;28;20037;-80
2021/11/05 09:01:13;;;;;;;4.75;4.25;;;6.70;74.40;;;;;;5004985;28;20521;-82
2021/11/05 09:03:39;;;;;;;5.05;4.55;;;6.90;74.70;;;;;;4991558;28;20069;-80
2021/11/05 09:06:06;;;;;;;6.28;3.95;;;6.90;74.60;;;;;;4987225;28;20030;-79
2021/11/05 09:08:33;;;;;;;7.18;4.15;;;7.00;74.70;;;;;;5011515;28;20437;-79
2021/11/05 09:11:03;;;;;;;4.57;4.07;;;7.10;74.80;;;;;;5006592;28;20053;-79
2021/11/05 09:13:31;;;;;;;7.90;3.97;;;7.20;74.90;;;;;;4994376;28;20506;-79
2021/11/05 09:15:57;;;;;;;6.07;4.70;;;7.30;75.00;;;;;;4987261;28;20031;-78
2021/11/05 09:18:23;;;;;;;7.40;3.70;;;7.40;75.10;;;;;;4987473;28;20398;-80
2021/11/05 09:20:50;;;;;;;4.25;3.85;;;7.50;75.10;;;;;;4987391;28;20022;-82
2021/11/05 09:23:17;;;;;;;5.72;4.13;;;7.70;75.40;;;;;;4987201;28;20034;-85
2021/11/05 09:25:43;;;;;;;4.68;3.28;;;7.80;75.50;;;;;;4985380;28;20100;-79
2021/11/05 09:28:09;;;;;;;4.82;3.72;;;7.80;75.40;;;;;;4993399;28;20065;-83
2021/11/05 09:30:35;;;;;;;6.18;4.50;;;7.90;75.40;;;;;;5006844;28;20026;-85
2021/11/05 09:33:01;;;;;;;5.25;3.90;;;8.00;75.50;;;;;;5021252;28;20041;-82
2021/11/05 09:35:28;;;;;;;4.80;4.10;;;8.10;75.60;;;;;;4981389;28;20053;-85
2021/11/05 09:37:55;;;;;;;5.88;3.88;;;8.20;75.70;;;;;;4982647;28;20139;-86
2021/11/05 09:40:25;;;;;;;4.47;3.10;;;8.30;75.80;;;;;;4987065;28;20073;-81
2021/11/05 09:42:53;;;;;;;4.13;3.42;;;8.40;76.50;;;;;;4992042;28;20052;-83
2021/11/05 09:45:21;;;;;;;4.43;3.78;;;8.50;76.00;;;;;;4987575;28;20078;-81
2021/11/05 09:47:50;;;;;;;5.07;3.17;;;8.60;76.00;;;;;;4986302;28;20034;-84
2021/11/05 09:50:21;;;;;;;4.80;3.10;;;8.70;76.10;;;;;;4985212;28;20132;-83
2021/11/05 09:52:49;;;;;;;3.38;3.00;;;8.80;76.20;;;;;;4986459;28;20053;-81
2021/11/05 09:55:18;;;;;;;3.47;3.17;;;8.90;76.20;;;;;;4989953;28;20038;-79
2021/11/05 09:57:44;;;;;;;4.65;3.28;;;9.00;76.30;;;;;;4989804;28;20381;-80
2021/11/05 10:00:12;;;;;;;5.82;3.05;;;9.10;77.00;;;;;;4988903;28;20038;-80
2021/11/05 10:02:48;;;;;;;4.43;3.47;;;9.20;76.50;;;;;;4995639;28;20030;-81
2021/11/05 10:05:16;;;;;;;8.95;3.75;;;9.20;76.40;;;;;;5009973;28;20121;-83
2021/11/05 10:07:46;;;;;;;5.10;2.65;;;9.30;76.50;;;;;;5009699;28;20033;-83
2021/11/05 10:10:13;;;;;;;3.75;2.78;;;9.40;76.50;;;;;;5024521;28;20028;-82
2021/11/05 10:12:55;;;;;;;4.05;2.72;;;9.50;76.60;;;;;;5004165;28;20054;-82
2021/11/05 10:15:27;;;;;;;4.18;2.83;;;9.50;76.60;;;;;;4988610;28;20035;-79
2021/11/05 10:18:24;;;;;;;4.47;2.97;;;9.60;76.60;;;;;;4976064;28;20040;-82
2021/11/05 10:21:07;;;;;;;5.28;2.80;;;9.80;76.90;;;;;;5008974;28;20124;-83
2021/11/05 10:23:38;;;;;;;;;;;9.90;76.80;;;;;;4997860;28;20034;-80
2021/11/05 10:26:07;;;;;;;7.18;3.10;;;10.00;76.80;;;;;;4989633;28;20399;-80
2021/11/05 10:28:38;;;;;;;4.68;3.05;;;10.20;76.90;;;;;;4985038;28;20026;-80
2021/11/05 10:31:08;;;;;;;3.65;2.65;;;10.30;76.90;;;;;;4968930;28;20038;-79
2021/11/05 10:33:46;;;;;;;5.40;3.22;;;10.40;76.90;;;;;;4981204;28;20670;-80
2021/11/05 10:36:15;;;;;;;2.75;2.42;;;10.50;77.50;;;;;;5004084;28;20034;-80
2021/11/05 10:38:48;;;;;;;4.80;2.80;;;10.70;77.60;;;;;;4982038;28;20414;-82
2021/11/05 10:41:18;;;;;;;6.07;3.67;;;10.90;77.30;;;;;;5009618;28;20026;-79
2021/11/05 10:44:00;;;;;;;5.55;3.35;;;11.10;77.40;;;;;;4993906;28;20313;-81
2021/11/05 10:46:32;;;;;;;4.55;2.53;;;11.30;77.40;;;;;;4989499;28;20052;-81
2021/11/05 10:49:20;;;;;;;3.28;2.85;;;11.40;77.20;;;;;;4989196;28;20051;-82
2021/11/05 10:51:47;;;;;;;4.35;2.50;;;11.60;77.30;;;;;;4999307;28;20198;-82
2021/11/05 10:54:13;;;;;;;3.97;3.33;;;11.70;77.20;;;;;;4987337;28;20038;-80
2021/11/05 10:56:40;;;;;;;6.07;3.30;;;11.80;77.20;;;;;;5004388;28;20034;-83
2021/11/05 10:59:08;;;;;;;4.68;2.55;;;11.90;77.20;;;;;;4988671;28;20172;-80
2021/11/05 11:01:38;;;;;;;3.20;2.83;;;11.90;77.00;;;;;;4989053;28;20034;-83
2021/11/05 11:04:11;;;;;;;4.85;2.38;;;12.00;77.00;;;;;;5004279;28;20344;-83
2021/11/05 11:06:41;;;;;;;4.38;2.70;;;12.10;77.00;;;;;;4987171;28;20026;-83
2021/11/05 11:09:21;;;;;;;8.10;3.33;;;12.10;76.90;;;;;;4988490;28;20125;-79
2021/11/05 11:11:50;;;;;;;3.08;2.17;;;12.20;76.90;;;;;;4989182;28;20417;-81
2021/11/05 11:14:19;;;;;;;3.42;2.53;;;12.20;76.80;;;;;;4987282;28;20045;-81
2021/11/05 11:16:58;;;;;;;3.80;2.40;;;12.30;76.90;;;;;;4989495;28;20089;-86
2021/11/05 11:19:36;;;;;;;4.95;2.55;;;12.40;76.90;;;;;;4988724;28;20382;-84
2021/11/05 11:22:04;;;;;;;6.68;3.33;;;12.50;76.90;;;;;;4989068;28;20045;-85
2021/11/05 11:24:34;;;;;;;5.28;2.92;;;12.50;76.80;;;;;;4987886;28;20129;-82
2021/11/05 11:27:02;;;;;;;2.75;2.42;;;12.50;76.60;;;;;;4989034;28;20072;-84
2021/11/05 11:29:29;;;;;;;4.13;2.58;;;12.50;76.40;;;;;;4988527;28;20031;-82
2021/11/05 11:31:59;;;;;;;3.20;2.58;;;12.60;76.60;;;;;;4988577;28;20117;-81
2021/11/05 11:34:26;;;;;;;6.88;2.63;;;12.60;76.40;;;;;;4979691;28;20046;-80
2021/11/05 11:37:00;;;;;;;2.70;2.20;;;12.60;76.40;;;;;;4971177;28;20553;-82
2021/11/05 11:39:31;;;;;;;3.75;2.13;;;12.70;76.40;;;;;;5003264;28;20088;-82
2021/11/05 11:42:03;;;;;;;3.65;2.90;;;12.70;76.40;;;;;;4989185;28;20066;-82
2021/11/05 11:44:35;;;;;;;9.25;3.58;;;12.70;76.30;;;;;;4987306;28;20089;-84
2021/11/05 11:47:05;;;;;;;3.97;2.40;;;12.80;76.40;;;;;;4997761;28;20469;-82
2021/11/05 11:49:46;;;;;;;2.75;1.80;;;12.80;76.30;;;;;;4987002;28;20057;-83
2021/11/05 11:52:18;;;;;;;5.25;2.40;;;12.90;76.30;;;;;;4986943;28;20030;-82
2021/11/05 11:54:58;;;;;;;3.33;2.47;;;13.00;76.40;;;;;;4986991;28;20192;-83
2021/11/05 11:57:32;;;;;;;3.75;2.17;;;13.10;76.40;;;;;;4987356;28;20030;-84
2021/11/05 12:00:07;;;;;;;7.25;2.22;;;13.20;76.30;;;;;;5007954;28;20041;-82
2021/11/05 12:02:44;;;;;;;6.65;2.40;;;13.30;76.40;;;;;;5002533;28;20026;-84
2021/11/05 12:05:25;;;;;;;6.72;2.92;;;13.40;76.40;;;;;;4970458;28;20042;-80
2021/11/05 12:08:14;;;;;;;4.88;2.20;;;13.50;76.30;;;;;;4987883;28;20030;-82
2021/11/05 12:10:46;;;;;;;5.90;2.85;;;13.60;76.20;;;;;;4988093;28;20053;-79
2021/11/05 12:13:34;;;;;;;4.63;2.50;;;13.70;76.10;;;;;;5002801;28;20213;-80
2021/11/05 12:16:10;;;;;;;5.20;2.42;;;13.80;76.10;;;;;;4976434;28;20034;-81
2021/11/05 12:18:55;;;;;;;4.25;1.73;;;13.80;75.90;;;;;;4996078;28;20033;-83
2021/11/05 12:21:23;;;;;;;4.35;2.13;;;13.90;75.90;;;;;;4993553;28;20172;-82
2021/11/05 12:24:21;;;;;;;5.47;2.08;;;13.90;75.80;;;;;;4987515;28;20038;-81
2021/11/05 12:26:48;;;;;;;4.95;2.20;;;13.90;75.70;;;;;;4987774;28;20031;-82
2021/11/05 12:29:29;;;;;;;5.47;2.90;;;14.00;75.80;;;;;;4985941;28;20053;-84
2021/11/05 12:31:55;;;;;;;5.57;1.80;;;14.00;75.60;;;;;;4987111;28;20057;-81
2021/11/05 12:34:36;;;;;;;5.32;3.03;;;14.00;75.50;;;;;;4986869;28;20486;-83
2021/11/05 12:37:04;;;;;;;6.22;2.80;;;14.10;75.50;;;;;;4981693;28;20341;-83
2021/11/05 12:39:33;;;;;;;6.40;2.22;;;14.10;75.50;;;;;;4986581;28;20544;-85
2021/11/05 12:42:01;;;;;;;5.18;2.80;;;14.10;75.30;;;;;;4987617;28;20474;-81
2021/11/05 12:44:28;;;;;;;4.50;2.72;;;14.10;75.20;;;;;;4987387;28;20104;-80
2021/11/05 12:46:55;;;;;;;5.00;2.25;;;14.10;75.20;;;;;;4986731;28;20034;-79
2021/11/05 12:49:22;;;;;;;3.03;1.90;;;14.20;75.20;;;;;;4986116;28;20053;-79
2021/11/05 12:51:50;;;;;;;4.35;1.90;;;14.20;75.10;;;;;;4985598;28;20062;-81
2021/11/05 12:54:21;;;;;;;3.28;1.80;;;14.30;75.20;;;;;;5003209;28;20033;-82
2021/11/05 12:56:54;;;;;;;5.72;2.53;;;14.30;75.00;;;;;;5006262;28;20117;-82